sensor_id;sensor_type;location;lat;lon;timestamp;P1;durP1;ratioP1;P2;durP2;ratioP2
69511;SDS011;56709;52.036;4.644;2023-03-24T00:01:50;7.43;;;3.50;;
69511;SDS011;56709;52.036;4.644;2023-03-24T00:04:15;9.13;;;3.60;;
69511;SDS011;56709;52.036;4.644;2023-03-24T00:06:41;6.93;;;3.47;;
69511;SDS011;56709;52.036;4.644;2023-03-24T00:09:07;10.95;;;3.85;;
69511;SDS011;56709;52.036;4.644;2023-03-24T00:11:33;9.45;;;3.53;;
69511;SDS011;56709;52.036;4.644;2023-03-24T00:13:59;12.98;;;4.55;;
69511;SDS011;56709;52.036;4.644;2023-03-24T00:16:25;7.82;;;4.13;;
69511;SDS011;56709;52.036;4.644;2023-03-24T00:18:51;10.27;;;4.40;;
69511;SDS011;56709;52.036;4.644;2023-03-24T00:21:20;6.75;;;3.20;;
69511;SDS011;56709;52.036;4.644;2023-03-24T00:23:49;6.30;;;3.25;;
69511;SDS011;56709;52.036;4.644;2023-03-24T00:26:15;8.80;;;3.40;;
69511;SDS011;56709;52.036;4.644;2023-03-24T00:28:42;7.97;;;3.80;;
69511;SDS011;56709;52.036;4.644;2023-03-24T00:31:13;6.60;;;3.15;;
69511;SDS011;56709;52.036;4.644;2023-03-24T00:33:40;5.75;;;3.15;;
69511;SDS011;56709;52.036;4.644;2023-03-24T00:36:07;6.55;;;3.00;;
69511;SDS011;56709;52.036;4.644;2023-03-24T00:38:37;8.27;;;3.35;;
69511;SDS011;56709;52.036;4.644;2023-03-24T00:41:03;7.68;;;2.90;;
69511;SDS011;56709;52.036;4.644;2023-03-24T00:46:14;6.57;;;3.38;;
69511;SDS011;56709;52.036;4.644;2023-03-24T00:48:53;7.75;;;3.30;;
69511;SDS011;56709;52.036;4.644;2023-03-24T00:51:30;6.18;;;3.25;;
69511;SDS011;56709;52.036;4.644;2023-03-24T00:53:57;10.07;;;3.25;;
69511;SDS011;56709;52.036;4.644;2023-03-24T00:56:26;6.22;;;3.30;;
69511;SDS011;56709;52.036;4.644;2023-03-24T00:58:53;11.07;;;3.97;;
69511;SDS011;56709;52.036;4.644;2023-03-24T01:01:21;6.13;;;3.20;;
69511;SDS011;56709;52.036;4.644;2023-03-24T01:03:51;6.40;;;3.28;;
69511;SDS011;56709;52.036;4.644;2023-03-24T01:06:17;6.35;;;3.70;;
69511;SDS011;56709;52.036;4.644;2023-03-24T01:08:46;6.40;;;3.75;;
69511;SDS011;56709;52.036;4.644;2023-03-24T01:11:13;4.35;;;3.35;;
69511;SDS011;56709;52.036;4.644;2023-03-24T01:13:39;6.93;;;3.60;;
69511;SDS011;56709;52.036;4.644;2023-03-24T01:16:06;8.48;;;3.10;;
69511;SDS011;56709;52.036;4.644;2023-03-24T01:18:32;6.15;;;3.65;;
69511;SDS011;56709;52.036;4.644;2023-03-24T01:20:59;6.28;;;3.53;;
69511;SDS011;56709;52.036;4.644;2023-03-24T01:23:25;7.50;;;3.73;;
69511;SDS011;56709;52.036;4.644;2023-03-24T01:25:51;6.18;;;3.17;;
69511;SDS011;56709;52.036;4.644;2023-03-24T01:28:19;6.20;;;3.10;;
69511;SDS011;56709;52.036;4.644;2023-03-24T01:30:49;6.50;;;3.80;;
69511;SDS011;56709;52.036;4.644;2023-03-24T01:33:18;9.40;;;3.50;;
69511;SDS011;56709;52.036;4.644;2023-03-24T01:35:44;5.35;;;3.40;;
69511;SDS011;56709;52.036;4.644;2023-03-24T01:38:10;7.38;;;4.10;;
69511;SDS011;56709;52.036;4.644;2023-03-24T01:40:37;8.57;;;3.28;;
69511;SDS011;56709;52.036;4.644;2023-03-24T01:43:04;10.15;;;3.55;;
69511;SDS011;56709;52.036;4.644;2023-03-24T01:48:03;6.05;;;3.03;;
69511;SDS011;56709;52.036;4.644;2023-03-24T01:50:33;6.45;;;3.38;;
69511;SDS011;56709;52.036;4.644;2023-03-24T01:52:58;6.40;;;3.50;;
69511;SDS011;56709;52.036;4.644;2023-03-24T01:55:25;8.05;;;2.75;;
69511;SDS011;56709;52.036;4.644;2023-03-24T01:57:52;8.40;;;2.75;;
69511;SDS011;56709;52.036;4.644;2023-03-24T02:00:20;5.47;;;2.40;;
69511;SDS011;56709;52.036;4.644;2023-03-24T02:02:55;2.65;;;1.80;;
69511;SDS011;56709;52.036;4.644;2023-03-24T02:05:24;3.70;;;1.55;;
69511;SDS011;56709;52.036;4.644;2023-03-24T02:11:00;10.85;;;2.17;;
69511;SDS011;56709;52.036;4.644;2023-03-24T02:13:25;7.47;;;1.70;;
69511;SDS011;56709;52.036;4.644;2023-03-24T02:18:51;11.73;;;1.70;;
69511;SDS011;56709;52.036;4.644;2023-03-24T02:35:11;10.25;;;2.70;;
69511;SDS011;56709;52.036;4.644;2023-03-24T02:38:03;13.65;;;2.53;;
69511;SDS011;56709;52.036;4.644;2023-03-24T02:46:03;12.43;;;1.75;;
69511;SDS011;56709;52.036;4.644;2023-03-24T02:59:16;9.40;;;1.65;;
69511;SDS011;56709;52.036;4.644;2023-03-24T03:01:50;6.60;;;1.85;;
69511;SDS011;56709;52.036;4.644;2023-03-24T03:04:26;9.77;;;1.88;;
69511;SDS011;56709;52.036;4.644;2023-03-24T03:06:56;10.52;;;2.40;;
69511;SDS011;56709;52.036;4.644;2023-03-24T03:09:23;8.43;;;2.00;;
69511;SDS011;56709;52.036;4.644;2023-03-24T03:11:52;6.72;;;1.30;;
69511;SDS011;56709;52.036;4.644;2023-03-24T03:14:28;12.00;;;1.90;;
69511;SDS011;56709;52.036;4.644;2023-03-24T03:16:57;13.23;;;1.85;;
69511;SDS011;56709;52.036;4.644;2023-03-24T03:19:39;9.52;;;1.75;;
69511;SDS011;56709;52.036;4.644;2023-03-24T03:22:07;20.05;;;2.65;;
69511;SDS011;56709;52.036;4.644;2023-03-24T03:24:40;8.95;;;1.80;;
69511;SDS011;56709;52.036;4.644;2023-03-24T03:27:15;7.40;;;2.05;;
69511;SDS011;56709;52.036;4.644;2023-03-24T03:29:50;8.30;;;1.67;;
69511;SDS011;56709;52.036;4.644;2023-03-24T03:32:20;12.25;;;1.88;;
69511;SDS011;56709;52.036;4.644;2023-03-24T03:35:34;9.13;;;1.88;;
69511;SDS011;56709;52.036;4.644;2023-03-24T03:37:49;12.27;;;1.63;;
69511;SDS011;56709;52.036;4.644;2023-03-24T03:40:27;7.78;;;1.65;;
69511;SDS011;56709;52.036;4.644;2023-03-24T03:42:57;7.85;;;1.52;;
69511;SDS011;56709;52.036;4.644;2023-03-24T03:45:22;8.32;;;1.85;;
69511;SDS011;56709;52.036;4.644;2023-03-24T03:47:48;17.92;;;2.45;;
69511;SDS011;56709;52.036;4.644;2023-03-24T03:50:14;12.25;;;2.50;;
69511;SDS011;56709;52.036;4.644;2023-03-24T03:52:40;8.15;;;2.03;;
69511;SDS011;56709;52.036;4.644;2023-03-24T03:55:06;10.60;;;1.83;;
69511;SDS011;56709;52.036;4.644;2023-03-24T03:57:32;11.40;;;2.10;;
69511;SDS011;56709;52.036;4.644;2023-03-24T04:00:02;10.88;;;2.10;;
69511;SDS011;56709;52.036;4.644;2023-03-24T04:02:40;19.92;;;3.17;;
69511;SDS011;56709;52.036;4.644;2023-03-24T04:08:05;19.38;;;2.42;;
69511;SDS011;56709;52.036;4.644;2023-03-24T04:10:43;13.70;;;2.95;;
69511;SDS011;56709;52.036;4.644;2023-03-24T04:16:34;15.88;;;2.90;;
69511;SDS011;56709;52.036;4.644;2023-03-24T04:24:47;14.98;;;2.95;;
69511;SDS011;56709;52.036;4.644;2023-03-24T04:30:01;23.02;;;3.17;;
69511;SDS011;56709;52.036;4.644;2023-03-24T04:32:39;14.20;;;2.80;;
69511;SDS011;56709;52.036;4.644;2023-03-24T04:35:12;14.70;;;4.28;;
69511;SDS011;56709;52.036;4.644;2023-03-24T04:38:04;19.48;;;3.13;;
69511;SDS011;56709;52.036;4.644;2023-03-24T04:40:33;19.85;;;3.28;;
69511;SDS011;56709;52.036;4.644;2023-03-24T04:43:01;15.82;;;2.45;;
69511;SDS011;56709;52.036;4.644;2023-03-24T04:45:28;26.13;;;3.90;;
69511;SDS011;56709;52.036;4.644;2023-03-24T04:47:59;15.30;;;3.08;;
69511;SDS011;56709;52.036;4.644;2023-03-24T04:50:39;27.85;;;3.88;;
69511;SDS011;56709;52.036;4.644;2023-03-24T04:53:07;28.60;;;4.13;;
69511;SDS011;56709;52.036;4.644;2023-03-24T04:58:15;14.75;;;3.42;;
69511;SDS011;56709;52.036;4.644;2023-03-24T05:00:41;19.55;;;3.47;;
69511;SDS011;56709;52.036;4.644;2023-03-24T05:03:08;22.57;;;4.50;;
69511;SDS011;56709;52.036;4.644;2023-03-24T05:05:38;20.92;;;3.67;;
69511;SDS011;56709;52.036;4.644;2023-03-24T05:08:07;20.25;;;5.45;;
69511;SDS011;56709;52.036;4.644;2023-03-24T05:10:33;24.05;;;4.13;;
69511;SDS011;56709;52.036;4.644;2023-03-24T05:12:58;24.77;;;4.75;;
69511;SDS011;56709;52.036;4.644;2023-03-24T05:15:24;24.35;;;4.40;;
69511;SDS011;56709;52.036;4.644;2023-03-24T05:17:49;23.17;;;5.43;;
69511;SDS011;56709;52.036;4.644;2023-03-24T05:20:16;28.27;;;5.50;;
69511;SDS011;56709;52.036;4.644;2023-03-24T05:22:42;21.00;;;5.63;;
69511;SDS011;56709;52.036;4.644;2023-03-24T05:25:07;18.35;;;4.63;;
69511;SDS011;56709;52.036;4.644;2023-03-24T05:27:33;26.23;;;4.55;;
69511;SDS011;56709;52.036;4.644;2023-03-24T05:29:58;16.23;;;4.28;;
69511;SDS011;56709;52.036;4.644;2023-03-24T05:32:24;25.65;;;4.25;;
69511;SDS011;56709;52.036;4.644;2023-03-24T05:34:49;19.65;;;4.70;;
69511;SDS011;56709;52.036;4.644;2023-03-24T05:37:15;25.85;;;3.72;;
69511;SDS011;56709;52.036;4.644;2023-03-24T05:39:42;20.15;;;4.07;;
69511;SDS011;56709;52.036;4.644;2023-03-24T05:42:07;17.25;;;3.65;;
69511;SDS011;56709;52.036;4.644;2023-03-24T05:44:33;19.92;;;4.35;;
69511;SDS011;56709;52.036;4.644;2023-03-24T05:46:58;20.98;;;4.15;;
69511;SDS011;56709;52.036;4.644;2023-03-24T05:49:24;17.40;;;3.45;;
69511;SDS011;56709;52.036;4.644;2023-03-24T05:51:50;14.82;;;3.63;;
69511;SDS011;56709;52.036;4.644;2023-03-24T05:54:15;24.58;;;3.83;;
69511;SDS011;56709;52.036;4.644;2023-03-24T05:56:40;25.15;;;4.03;;
69511;SDS011;56709;52.036;4.644;2023-03-24T05:59:06;17.40;;;3.53;;
69511;SDS011;56709;52.036;4.644;2023-03-24T06:01:32;17.48;;;3.08;;
69511;SDS011;56709;52.036;4.644;2023-03-24T06:03:57;18.42;;;3.58;;
69511;SDS011;56709;52.036;4.644;2023-03-24T06:06:22;22.55;;;3.35;;
69511;SDS011;56709;52.036;4.644;2023-03-24T06:08:48;16.48;;;3.50;;
69511;SDS011;56709;52.036;4.644;2023-03-24T06:11:14;18.92;;;4.45;;
69511;SDS011;56709;52.036;4.644;2023-03-24T06:13:40;24.15;;;3.85;;
69511;SDS011;56709;52.036;4.644;2023-03-24T06:16:05;22.80;;;4.43;;
69511;SDS011;56709;52.036;4.644;2023-03-24T06:18:31;23.70;;;3.08;;
69511;SDS011;56709;52.036;4.644;2023-03-24T06:20:57;20.40;;;3.35;;
69511;SDS011;56709;52.036;4.644;2023-03-24T06:23:23;20.77;;;2.92;;
69511;SDS011;56709;52.036;4.644;2023-03-24T06:25:53;16.48;;;3.28;;
69511;SDS011;56709;52.036;4.644;2023-03-24T06:28:19;18.58;;;2.95;;
69511;SDS011;56709;52.036;4.644;2023-03-24T06:30:45;25.45;;;4.05;;
69511;SDS011;56709;52.036;4.644;2023-03-24T06:33:12;18.05;;;3.10;;
69511;SDS011;56709;52.036;4.644;2023-03-24T06:35:38;21.65;;;3.92;;
69511;SDS011;56709;52.036;4.644;2023-03-24T06:38:04;17.25;;;4.18;;
69511;SDS011;56709;52.036;4.644;2023-03-24T06:40:31;17.50;;;2.83;;
69511;SDS011;56709;52.036;4.644;2023-03-24T06:42:57;15.35;;;2.83;;
69511;SDS011;56709;52.036;4.644;2023-03-24T06:45:22;23.13;;;3.08;;
69511;SDS011;56709;52.036;4.644;2023-03-24T06:47:48;15.70;;;3.25;;
69511;SDS011;56709;52.036;4.644;2023-03-24T06:50:13;15.57;;;3.88;;
69511;SDS011;56709;52.036;4.644;2023-03-24T06:52:38;14.18;;;3.42;;
69511;SDS011;56709;52.036;4.644;2023-03-24T06:55:05;14.50;;;2.75;;
69511;SDS011;56709;52.036;4.644;2023-03-24T06:57:32;21.52;;;2.83;;
69511;SDS011;56709;52.036;4.644;2023-03-24T06:59:57;18.45;;;3.30;;
69511;SDS011;56709;52.036;4.644;2023-03-24T07:02:23;19.17;;;3.13;;
69511;SDS011;56709;52.036;4.644;2023-03-24T07:04:48;11.85;;;2.53;;
69511;SDS011;56709;52.036;4.644;2023-03-24T07:07:14;17.75;;;3.55;;
69511;SDS011;56709;52.036;4.644;2023-03-24T07:09:41;12.25;;;2.92;;
69511;SDS011;56709;52.036;4.644;2023-03-24T07:12:07;15.77;;;2.78;;
69511;SDS011;56709;52.036;4.644;2023-03-24T07:14:32;13.32;;;2.75;;
69511;SDS011;56709;52.036;4.644;2023-03-24T07:16:58;15.43;;;3.17;;
69511;SDS011;56709;52.036;4.644;2023-03-24T07:19:23;16.85;;;3.03;;
69511;SDS011;56709;52.036;4.644;2023-03-24T07:21:49;15.75;;;2.45;;
69511;SDS011;56709;52.036;4.644;2023-03-24T07:24:17;17.48;;;3.33;;
69511;SDS011;56709;52.036;4.644;2023-03-24T07:26:43;13.80;;;3.33;;
69511;SDS011;56709;52.036;4.644;2023-03-24T07:29:09;11.82;;;2.83;;
69511;SDS011;56709;52.036;4.644;2023-03-24T07:31:35;18.63;;;3.30;;
69511;SDS011;56709;52.036;4.644;2023-03-24T07:34:05;13.50;;;2.60;;
69511;SDS011;56709;52.036;4.644;2023-03-24T07:36:31;14.52;;;2.75;;
69511;SDS011;56709;52.036;4.644;2023-03-24T07:38:56;17.98;;;3.35;;
69511;SDS011;56709;52.036;4.644;2023-03-24T07:41:22;10.70;;;2.30;;
69511;SDS011;56709;52.036;4.644;2023-03-24T07:43:48;17.45;;;2.90;;
69511;SDS011;56709;52.036;4.644;2023-03-24T07:46:14;13.43;;;2.50;;
69511;SDS011;56709;52.036;4.644;2023-03-24T07:48:40;18.27;;;1.98;;
69511;SDS011;56709;52.036;4.644;2023-03-24T07:51:06;16.33;;;2.97;;
69511;SDS011;56709;52.036;4.644;2023-03-24T07:53:31;15.30;;;2.42;;
69511;SDS011;56709;52.036;4.644;2023-03-24T07:55:57;14.23;;;2.72;;
69511;SDS011;56709;52.036;4.644;2023-03-24T07:58:23;14.02;;;2.10;;
69511;SDS011;56709;52.036;4.644;2023-03-24T08:00:49;15.40;;;2.92;;
69511;SDS011;56709;52.036;4.644;2023-03-24T08:03:15;13.73;;;2.45;;
69511;SDS011;56709;52.036;4.644;2023-03-24T08:05:40;12.07;;;2.75;;
69511;SDS011;56709;52.036;4.644;2023-03-24T08:08:06;13.80;;;3.22;;
69511;SDS011;56709;52.036;4.644;2023-03-24T08:10:32;13.65;;;2.83;;
69511;SDS011;56709;52.036;4.644;2023-03-24T08:12:58;19.17;;;3.75;;
69511;SDS011;56709;52.036;4.644;2023-03-24T08:15:24;16.52;;;3.38;;
69511;SDS011;56709;52.036;4.644;2023-03-24T08:17:51;14.00;;;3.28;;
69511;SDS011;56709;52.036;4.644;2023-03-24T08:20:17;8.38;;;2.28;;
69511;SDS011;56709;52.036;4.644;2023-03-24T08:22:46;15.55;;;2.63;;
69511;SDS011;56709;52.036;4.644;2023-03-24T08:25:13;11.45;;;2.58;;
69511;SDS011;56709;52.036;4.644;2023-03-24T08:27:40;18.30;;;2.77;;
69511;SDS011;56709;52.036;4.644;2023-03-24T08:35:00;11.27;;;2.60;;
69511;SDS011;56709;52.036;4.644;2023-03-24T08:37:26;12.82;;;3.25;;
69511;SDS011;56709;52.036;4.644;2023-03-24T08:39:52;15.45;;;2.88;;
69511;SDS011;56709;52.036;4.644;2023-03-24T08:42:22;11.95;;;2.67;;
69511;SDS011;56709;52.036;4.644;2023-03-24T08:44:47;10.50;;;2.47;;
69511;SDS011;56709;52.036;4.644;2023-03-24T08:47:13;15.73;;;3.35;;
69511;SDS011;56709;52.036;4.644;2023-03-24T08:49:38;15.13;;;2.60;;
69511;SDS011;56709;52.036;4.644;2023-03-24T08:52:04;10.95;;;2.78;;
69511;SDS011;56709;52.036;4.644;2023-03-24T08:54:29;12.68;;;2.67;;
69511;SDS011;56709;52.036;4.644;2023-03-24T08:56:55;7.13;;;2.60;;
69511;SDS011;56709;52.036;4.644;2023-03-24T08:59:20;10.95;;;2.97;;
69511;SDS011;56709;52.036;4.644;2023-03-24T09:01:45;11.75;;;3.00;;
69511;SDS011;56709;52.036;4.644;2023-03-24T09:04:11;9.98;;;2.42;;
69511;SDS011;56709;52.036;4.644;2023-03-24T09:06:36;10.50;;;2.40;;
69511;SDS011;56709;52.036;4.644;2023-03-24T09:09:02;12.98;;;2.63;;
69511;SDS011;56709;52.036;4.644;2023-03-24T09:11:27;11.52;;;2.17;;
69511;SDS011;56709;52.036;4.644;2023-03-24T09:13:53;14.38;;;2.67;;
69511;SDS011;56709;52.036;4.644;2023-03-24T09:16:18;9.90;;;2.50;;
69511;SDS011;56709;52.036;4.644;2023-03-24T09:18:44;12.75;;;3.75;;
69511;SDS011;56709;52.036;4.644;2023-03-24T09:21:10;9.30;;;2.38;;
69511;SDS011;56709;52.036;4.644;2023-03-24T09:23:36;12.70;;;2.75;;
69511;SDS011;56709;52.036;4.644;2023-03-24T09:26:01;14.48;;;2.53;;
69511;SDS011;56709;52.036;4.644;2023-03-24T09:28:27;12.32;;;2.47;;
69511;SDS011;56709;52.036;4.644;2023-03-24T09:31:00;17.73;;;2.78;;
69511;SDS011;56709;52.036;4.644;2023-03-24T09:33:27;16.42;;;2.28;;
69511;SDS011;56709;52.036;4.644;2023-03-24T09:35:55;11.40;;;2.53;;
69511;SDS011;56709;52.036;4.644;2023-03-24T09:38:22;20.02;;;3.17;;
69511;SDS011;56709;52.036;4.644;2023-03-24T09:40:48;14.73;;;3.03;;
69511;SDS011;56709;52.036;4.644;2023-03-24T09:43:26;12.35;;;2.40;;
69511;SDS011;56709;52.036;4.644;2023-03-24T09:46:03;15.77;;;2.53;;
69511;SDS011;56709;52.036;4.644;2023-03-24T09:48:41;14.25;;;2.42;;
69511;SDS011;56709;52.036;4.644;2023-03-24T09:51:12;12.63;;;1.83;;
69511;SDS011;56709;52.036;4.644;2023-03-24T09:53:46;13.60;;;2.03;;
69511;SDS011;56709;52.036;4.644;2023-03-24T09:56:15;12.48;;;2.33;;
69511;SDS011;56709;52.036;4.644;2023-03-24T09:58:45;8.93;;;1.88;;
69511;SDS011;56709;52.036;4.644;2023-03-24T10:01:14;15.20;;;2.08;;
69511;SDS011;56709;52.036;4.644;2023-03-24T10:03:41;19.95;;;2.15;;
69511;SDS011;56709;52.036;4.644;2023-03-24T10:06:08;10.48;;;2.53;;
69511;SDS011;56709;52.036;4.644;2023-03-24T10:08:42;9.57;;;1.80;;
69511;SDS011;56709;52.036;4.644;2023-03-24T10:11:18;13.15;;;1.92;;
69511;SDS011;56709;52.036;4.644;2023-03-24T10:19:16;15.43;;;2.22;;
69511;SDS011;56709;52.036;4.644;2023-03-24T10:24:45;15.40;;;2.50;;
69511;SDS011;56709;52.036;4.644;2023-03-24T10:27:50;7.82;;;2.00;;
69511;SDS011;56709;52.036;4.644;2023-03-24T10:30:12;11.18;;;2.28;;
69511;SDS011;56709;52.036;4.644;2023-03-24T10:32:42;12.18;;;2.33;;
69511;SDS011;56709;52.036;4.644;2023-03-24T10:35:13;9.55;;;1.98;;
69511;SDS011;56709;52.036;4.644;2023-03-24T10:37:40;10.43;;;2.33;;
69511;SDS011;56709;52.036;4.644;2023-03-24T10:40:17;11.35;;;2.33;;
69511;SDS011;56709;52.036;4.644;2023-03-24T10:42:45;14.93;;;2.60;;
69511;SDS011;56709;52.036;4.644;2023-03-24T10:45:13;13.50;;;2.38;;
69511;SDS011;56709;52.036;4.644;2023-03-24T10:47:39;10.02;;;2.40;;
69511;SDS011;56709;52.036;4.644;2023-03-24T10:50:06;13.70;;;2.55;;
69511;SDS011;56709;52.036;4.644;2023-03-24T10:52:39;11.35;;;2.83;;
69511;SDS011;56709;52.036;4.644;2023-03-24T10:55:06;14.52;;;3.30;;
69511;SDS011;56709;52.036;4.644;2023-03-24T10:57:31;9.90;;;2.45;;
69511;SDS011;56709;52.036;4.644;2023-03-24T11:02:42;12.20;;;2.72;;
69511;SDS011;56709;52.036;4.644;2023-03-24T11:05:12;10.48;;;2.35;;
69511;SDS011;56709;52.036;4.644;2023-03-24T11:07:44;10.75;;;2.13;;
69511;SDS011;56709;52.036;4.644;2023-03-24T11:12:43;10.80;;;2.28;;
69511;SDS011;56709;52.036;4.644;2023-03-24T11:20:37;8.40;;;1.33;;
69511;SDS011;56709;52.036;4.644;2023-03-24T11:23:12;11.75;;;1.90;;
69511;SDS011;56709;52.036;4.644;2023-03-24T11:25:39;10.30;;;1.63;;
69511;SDS011;56709;52.036;4.644;2023-03-24T11:28:07;11.43;;;2.15;;
69511;SDS011;56709;52.036;4.644;2023-03-24T11:30:36;7.22;;;1.60;;
69511;SDS011;56709;52.036;4.644;2023-03-24T11:33:18;8.68;;;1.83;;
69511;SDS011;56709;52.036;4.644;2023-03-24T11:35:46;8.73;;;1.73;;
69511;SDS011;56709;52.036;4.644;2023-03-24T11:38:16;9.73;;;1.90;;
69511;SDS011;56709;52.036;4.644;2023-03-24T11:41:01;7.88;;;1.65;;
69511;SDS011;56709;52.036;4.644;2023-03-24T11:43:29;5.80;;;1.70;;
69511;SDS011;56709;52.036;4.644;2023-03-24T11:48:27;5.15;;;1.35;;
69511;SDS011;56709;52.036;4.644;2023-03-24T11:50:56;8.02;;;1.42;;
69511;SDS011;56709;52.036;4.644;2023-03-24T11:53:24;9.32;;;2.03;;
69511;SDS011;56709;52.036;4.644;2023-03-24T12:06:32;9.65;;;1.75;;
69511;SDS011;56709;52.036;4.644;2023-03-24T12:09:09;8.30;;;1.75;;
69511;SDS011;56709;52.036;4.644;2023-03-24T12:11:47;14.85;;;2.88;;
69511;SDS011;56709;52.036;4.644;2023-03-24T12:14:22;6.95;;;1.77;;
69511;SDS011;56709;52.036;4.644;2023-03-24T12:30:29;9.48;;;2.10;;
69511;SDS011;56709;52.036;4.644;2023-03-24T12:36:03;12.15;;;1.75;;
69511;SDS011;56709;52.036;4.644;2023-03-24T12:57:07;8.25;;;1.60;;
69511;SDS011;56709;52.036;4.644;2023-03-24T13:04:34;11.23;;;1.98;;
69511;SDS011;56709;52.036;4.644;2023-03-24T13:07:07;9.18;;;1.50;;
69511;SDS011;56709;52.036;4.644;2023-03-24T13:09:42;15.98;;;2.30;;
69511;SDS011;56709;52.036;4.644;2023-03-24T13:12:23;9.80;;;1.95;;
69511;SDS011;56709;52.036;4.644;2023-03-24T13:15:14;6.30;;;1.70;;
69511;SDS011;56709;52.036;4.644;2023-03-24T13:20:16;8.15;;;1.73;;
69511;SDS011;56709;52.036;4.644;2023-03-24T13:22:48;13.13;;;2.03;;
69511;SDS011;56709;52.036;4.644;2023-03-24T13:25:31;8.35;;;1.45;;
69511;SDS011;56709;52.036;4.644;2023-03-24T13:28:26;3.67;;;1.33;;
69511;SDS011;56709;52.036;4.644;2023-03-24T13:30:54;3.28;;;0.80;;
69511;SDS011;56709;52.036;4.644;2023-03-24T13:33:21;2.05;;;0.50;;
69511;SDS011;56709;52.036;4.644;2023-03-24T13:38:46;6.05;;;0.70;;
69511;SDS011;56709;52.036;4.644;2023-03-24T13:41:22;6.13;;;0.98;;
69511;SDS011;56709;52.036;4.644;2023-03-24T13:43:56;5.55;;;1.08;;
69511;SDS011;56709;52.036;4.644;2023-03-24T13:46:23;5.63;;;1.50;;
69511;SDS011;56709;52.036;4.644;2023-03-24T13:48:50;4.30;;;1.05;;
69511;SDS011;56709;52.036;4.644;2023-03-24T13:51:19;4.75;;;1.05;;
69511;SDS011;56709;52.036;4.644;2023-03-24T13:53:51;7.35;;;1.58;;
69511;SDS011;56709;52.036;4.644;2023-03-24T13:56:30;7.90;;;1.50;;
69511;SDS011;56709;52.036;4.644;2023-03-24T14:05:16;11.32;;;1.77;;
69511;SDS011;56709;52.036;4.644;2023-03-24T14:07:50;9.70;;;1.90;;
69511;SDS011;56709;52.036;4.644;2023-03-24T14:10:38;11.18;;;2.17;;
69511;SDS011;56709;52.036;4.644;2023-03-24T14:15:45;9.40;;;1.58;;
69511;SDS011;56709;52.036;4.644;2023-03-24T14:18:14;8.85;;;1.67;;
69511;SDS011;56709;52.036;4.644;2023-03-24T14:23:21;11.50;;;1.75;;
69511;SDS011;56709;52.036;4.644;2023-03-24T14:25:52;8.52;;;1.45;;
69511;SDS011;56709;52.036;4.644;2023-03-24T14:33:55;9.73;;;1.42;;
69511;SDS011;56709;52.036;4.644;2023-03-24T14:39:18;8.77;;;1.38;;
69511;SDS011;56709;52.036;4.644;2023-03-24T14:41:59;8.60;;;2.08;;
69511;SDS011;56709;52.036;4.644;2023-03-24T14:47:09;15.20;;;1.80;;
69511;SDS011;56709;52.036;4.644;2023-03-24T14:49:34;11.73;;;1.95;;
69511;SDS011;56709;52.036;4.644;2023-03-24T14:57:34;6.78;;;1.48;;
69511;SDS011;56709;52.036;4.644;2023-03-24T15:02:35;10.68;;;2.10;;
69511;SDS011;56709;52.036;4.644;2023-03-24T15:08:04;9.18;;;1.45;;
69511;SDS011;56709;52.036;4.644;2023-03-24T15:11:13;9.60;;;1.83;;
69511;SDS011;56709;52.036;4.644;2023-03-24T15:13:47;9.13;;;1.60;;
69511;SDS011;56709;52.036;4.644;2023-03-24T15:18:57;9.45;;;1.65;;
69511;SDS011;56709;52.036;4.644;2023-03-24T15:21:34;13.00;;;2.05;;
69511;SDS011;56709;52.036;4.644;2023-03-24T15:24:01;14.55;;;1.73;;
69511;SDS011;56709;52.036;4.644;2023-03-24T15:28:54;9.30;;;1.70;;
69511;SDS011;56709;52.036;4.644;2023-03-24T15:31:25;14.05;;;2.08;;
69511;SDS011;56709;52.036;4.644;2023-03-24T15:34:00;11.05;;;1.77;;
69511;SDS011;56709;52.036;4.644;2023-03-24T15:36:26;8.60;;;1.98;;
69511;SDS011;56709;52.036;4.644;2023-03-24T15:38:58;9.20;;;1.55;;
69511;SDS011;56709;52.036;4.644;2023-03-24T15:41:24;12.63;;;1.98;;
69511;SDS011;56709;52.036;4.644;2023-03-24T15:43:51;11.95;;;1.90;;
69511;SDS011;56709;52.036;4.644;2023-03-24T15:46:19;9.00;;;1.15;;
69511;SDS011;56709;52.036;4.644;2023-03-24T15:48:48;10.48;;;1.95;;
69511;SDS011;56709;52.036;4.644;2023-03-24T15:51:13;7.57;;;1.58;;
69511;SDS011;56709;52.036;4.644;2023-03-24T15:54:14;9.10;;;1.85;;
69511;SDS011;56709;52.036;4.644;2023-03-24T15:56:40;9.20;;;1.98;;
69511;SDS011;56709;52.036;4.644;2023-03-24T15:59:14;7.03;;;1.77;;
69511;SDS011;56709;52.036;4.644;2023-03-24T16:01:41;10.55;;;1.52;;
69511;SDS011;56709;52.036;4.644;2023-03-24T16:04:10;8.68;;;2.55;;
69511;SDS011;56709;52.036;4.644;2023-03-24T16:06:38;8.80;;;3.03;;
69511;SDS011;56709;52.036;4.644;2023-03-24T16:09:05;6.65;;;1.38;;
69511;SDS011;56709;52.036;4.644;2023-03-24T16:11:34;8.60;;;1.20;;
69511;SDS011;56709;52.036;4.644;2023-03-24T16:14:11;7.60;;;1.35;;
69511;SDS011;56709;52.036;4.644;2023-03-24T16:16:51;9.77;;;1.83;;
69511;SDS011;56709;52.036;4.644;2023-03-24T16:19:17;14.75;;;2.50;;
69511;SDS011;56709;52.036;4.644;2023-03-24T16:21:43;14.00;;;1.77;;
69511;SDS011;56709;52.036;4.644;2023-03-24T16:24:08;11.20;;;1.92;;
69511;SDS011;56709;52.036;4.644;2023-03-24T16:26:34;11.00;;;2.45;;
69511;SDS011;56709;52.036;4.644;2023-03-24T16:31:37;12.38;;;1.67;;
69511;SDS011;56709;52.036;4.644;2023-03-24T16:34:02;12.55;;;2.38;;
69511;SDS011;56709;52.036;4.644;2023-03-24T16:36:28;7.43;;;1.80;;
69511;SDS011;56709;52.036;4.644;2023-03-24T16:38:54;12.35;;;2.17;;
69511;SDS011;56709;52.036;4.644;2023-03-24T16:41:20;7.78;;;1.90;;
69511;SDS011;56709;52.036;4.644;2023-03-24T16:43:47;12.40;;;1.63;;
69511;SDS011;56709;52.036;4.644;2023-03-24T16:46:13;8.70;;;1.40;;
69511;SDS011;56709;52.036;4.644;2023-03-24T16:48:40;10.70;;;1.50;;
69511;SDS011;56709;52.036;4.644;2023-03-24T16:51:09;9.57;;;2.20;;
69511;SDS011;56709;52.036;4.644;2023-03-24T16:53:36;7.75;;;1.27;;
69511;SDS011;56709;52.036;4.644;2023-03-24T16:56:01;7.90;;;1.90;;
69511;SDS011;56709;52.036;4.644;2023-03-24T16:58:27;10.82;;;1.73;;
69511;SDS011;56709;52.036;4.644;2023-03-24T17:00:54;7.55;;;1.77;;
69511;SDS011;56709;52.036;4.644;2023-03-24T17:05:48;10.48;;;1.63;;
69511;SDS011;56709;52.036;4.644;2023-03-24T17:08:15;10.50;;;1.63;;
69511;SDS011;56709;52.036;4.644;2023-03-24T17:13:08;9.75;;;2.38;;
69511;SDS011;56709;52.036;4.644;2023-03-24T17:15:34;10.48;;;2.17;;
69511;SDS011;56709;52.036;4.644;2023-03-24T17:18:00;12.68;;;2.08;;
69511;SDS011;56709;52.036;4.644;2023-03-24T17:20:26;11.48;;;1.50;;
69511;SDS011;56709;52.036;4.644;2023-03-24T17:22:54;9.73;;;2.35;;
69511;SDS011;56709;52.036;4.644;2023-03-24T17:27:47;9.00;;;1.67;;
69511;SDS011;56709;52.036;4.644;2023-03-24T17:30:15;13.48;;;1.23;;
69511;SDS011;56709;52.036;4.644;2023-03-24T17:32:42;6.70;;;1.35;;
69511;SDS011;56709;52.036;4.644;2023-03-24T17:35:14;9.50;;;1.85;;
69511;SDS011;56709;52.036;4.644;2023-03-24T17:37:41;8.88;;;1.35;;
69511;SDS011;56709;52.036;4.644;2023-03-24T17:40:08;10.63;;;1.80;;
69511;SDS011;56709;52.036;4.644;2023-03-24T17:42:40;12.05;;;1.40;;
69511;SDS011;56709;52.036;4.644;2023-03-24T17:45:07;5.85;;;1.30;;
69511;SDS011;56709;52.036;4.644;2023-03-24T17:47:35;7.45;;;1.38;;
69511;SDS011;56709;52.036;4.644;2023-03-24T17:50:00;9.48;;;1.83;;
69511;SDS011;56709;52.036;4.644;2023-03-24T17:52:26;7.13;;;1.70;;
69511;SDS011;56709;52.036;4.644;2023-03-24T17:54:51;11.88;;;1.88;;
69511;SDS011;56709;52.036;4.644;2023-03-24T17:57:17;9.23;;;2.13;;
69511;SDS011;56709;52.036;4.644;2023-03-24T17:59:42;12.77;;;1.65;;
69511;SDS011;56709;52.036;4.644;2023-03-24T18:02:09;7.97;;;1.88;;